sensor_id;sensor_type;location;lat;lon;timestamp;temperature;humidity
67769;DHT22;54569;52.018;5.584;2023-07-20T00:01:54;18.40;74.70
67769;DHT22;54569;52.018;5.584;2023-07-20T00:04:20;18.40;74.80
67769;DHT22;54569;52.018;5.584;2023-07-20T00:06:46;18.40;75.10
67769;DHT22;54569;52.018;5.584;2023-07-20T00:09:12;18.40;75.20
67769;DHT22;54569;52.018;5.584;2023-07-20T00:11:38;18.40;75.30
67769;DHT22;54569;52.018;5.584;2023-07-20T00:14:05;18.40;75.50
67769;DHT22;54569;52.018;5.584;2023-07-20T00:16:30;18.30;75.70
67769;DHT22;54569;52.018;5.584;2023-07-20T00:18:56;18.30;75.60
67769;DHT22;54569;52.018;5.584;2023-07-20T00:21:22;18.30;75.80
67769;DHT22;54569;52.018;5.584;2023-07-20T00:23:47;18.20;76.00
67769;DHT22;54569;52.018;5.584;2023-07-20T00:26:13;18.20;76.00
67769;DHT22;54569;52.018;5.584;2023-07-20T00:28:39;18.20;76.10
67769;DHT22;54569;52.018;5.584;2023-07-20T00:31:05;18.10;76.30
67769;DHT22;54569;52.018;5.584;2023-07-20T00:33:30;18.10;76.50
67769;DHT22;54569;52.018;5.584;2023-07-20T00:35:56;18.00;76.80
67769;DHT22;54569;52.018;5.584;2023-07-20T00:38:22;18.00;77.10
67769;DHT22;54569;52.018;5.584;2023-07-20T00:40:48;18.00;77.20
67769;DHT22;54569;52.018;5.584;2023-07-20T00:43:17;17.90;77.10
67769;DHT22;54569;52.018;5.584;2023-07-20T00:45:43;17.90;77.40
67769;DHT22;54569;52.018;5.584;2023-07-20T00:48:09;17.80;77.40
67769;DHT22;54569;52.018;5.584;2023-07-20T00:50:35;17.80;77.60
67769;DHT22;54569;52.018;5.584;2023-07-20T00:53:02;17.80;77.80
67769;DHT22;54569;52.018;5.584;2023-07-20T00:55:32;17.80;77.80
67769;DHT22;54569;52.018;5.584;2023-07-20T00:57:59;17.70;78.00
67769;DHT22;54569;52.018;5.584;2023-07-20T01:00:25;17.70;77.90
67769;DHT22;54569;52.018;5.584;2023-07-20T01:02:51;17.70;78.00
67769;DHT22;54569;52.018;5.584;2023-07-20T01:05:17;17.60;78.10
67769;DHT22;54569;52.018;5.584;2023-07-20T01:07:50;17.50;78.10
67769;DHT22;54569;52.018;5.584;2023-07-20T01:10:29;17.50;78.30
67769;DHT22;54569;52.018;5.584;2023-07-20T01:12:57;17.50;78.60
67769;DHT22;54569;52.018;5.584;2023-07-20T01:15:23;17.50;78.80
67769;DHT22;54569;52.018;5.584;2023-07-20T01:17:49;17.50;78.80
67769;DHT22;54569;52.018;5.584;2023-07-20T01:20:17;17.50;78.80
67769;DHT22;54569;52.018;5.584;2023-07-20T01:25:57;17.40;79.10
67769;DHT22;54569;52.018;5.584;2023-07-20T01:28:31;17.40;79.20
67769;DHT22;54569;52.018;5.584;2023-07-20T01:31:21;17.30;80.90
67769;DHT22;54569;52.018;5.584;2023-07-20T01:33:48;17.30;79.40
67769;DHT22;54569;52.018;5.584;2023-07-20T01:36:18;17.20;79.00
67769;DHT22;54569;52.018;5.584;2023-07-20T01:38:45;17.20;78.80
67769;DHT22;54569;52.018;5.584;2023-07-20T01:41:11;17.20;78.90
67769;DHT22;54569;52.018;5.584;2023-07-20T01:43:37;17.20;79.10
67769;DHT22;54569;52.018;5.584;2023-07-20T01:46:04;17.20;79.10
67769;DHT22;54569;52.018;5.584;2023-07-20T01:48:30;17.20;79.10
67769;DHT22;54569;52.018;5.584;2023-07-20T01:50:56;17.10;79.20
67769;DHT22;54569;52.018;5.584;2023-07-20T01:53:22;17.10;79.20
67769;DHT22;54569;52.018;5.584;2023-07-20T01:55:48;17.10;79.20
67769;DHT22;54569;52.018;5.584;2023-07-20T01:58:14;17.10;79.10
67769;DHT22;54569;52.018;5.584;2023-07-20T02:00:40;17.00;79.20
67769;DHT22;54569;52.018;5.584;2023-07-20T02:03:05;17.00;79.30
67769;DHT22;54569;52.018;5.584;2023-07-20T02:05:31;17.00;79.40
67769;DHT22;54569;52.018;5.584;2023-07-20T02:07:57;16.90;79.50
67769;DHT22;54569;52.018;5.584;2023-07-20T02:10:23;16.90;79.50
67769;DHT22;54569;52.018;5.584;2023-07-20T02:12:49;16.80;79.60
67769;DHT22;54569;52.018;5.584;2023-07-20T02:15:15;16.80;79.80
67769;DHT22;54569;52.018;5.584;2023-07-20T02:17:44;16.80;79.80
67769;DHT22;54569;52.018;5.584;2023-07-20T02:20:10;16.80;79.90
67769;DHT22;54569;52.018;5.584;2023-07-20T02:22:37;16.80;80.00
67769;DHT22;54569;52.018;5.584;2023-07-20T02:25:06;16.70;80.60
67769;DHT22;54569;52.018;5.584;2023-07-20T02:27:33;16.70;80.20
67769;DHT22;54569;52.018;5.584;2023-07-20T02:30:00;16.70;80.10
67769;DHT22;54569;52.018;5.584;2023-07-20T02:32:25;16.70;80.20
67769;DHT22;54569;52.018;5.584;2023-07-20T02:34:51;16.70;80.30
67769;DHT22;54569;52.018;5.584;2023-07-20T02:37:18;16.60;80.30
67769;DHT22;54569;52.018;5.584;2023-07-20T02:39:43;16.60;80.50
67769;DHT22;54569;52.018;5.584;2023-07-20T02:42:09;16.60;80.60
67769;DHT22;54569;52.018;5.584;2023-07-20T02:44:35;16.60;80.60
67769;DHT22;54569;52.018;5.584;2023-07-20T02:47:01;16.50;80.70
67769;DHT22;54569;52.018;5.584;2023-07-20T02:49:27;16.50;80.70
67769;DHT22;54569;52.018;5.584;2023-07-20T02:51:53;16.50;80.80
67769;DHT22;54569;52.018;5.584;2023-07-20T02:54:20;16.50;80.80
67769;DHT22;54569;52.018;5.584;2023-07-20T02:56:46;16.50;80.90
67769;DHT22;54569;52.018;5.584;2023-07-20T02:59:12;16.40;80.80
67769;DHT22;54569;52.018;5.584;2023-07-20T03:01:38;16.40;80.90
67769;DHT22;54569;52.018;5.584;2023-07-20T03:04:03;16.40;81.00
67769;DHT22;54569;52.018;5.584;2023-07-20T03:06:29;16.40;81.00
67769;DHT22;54569;52.018;5.584;2023-07-20T03:08:55;16.40;80.90
67769;DHT22;54569;52.018;5.584;2023-07-20T03:11:21;16.40;80.90
67769;DHT22;54569;52.018;5.584;2023-07-20T03:13:49;16.40;80.90
67769;DHT22;54569;52.018;5.584;2023-07-20T03:16:18;16.40;81.00
67769;DHT22;54569;52.018;5.584;2023-07-20T03:18:45;16.30;81.20
67769;DHT22;54569;52.018;5.584;2023-07-20T03:21:11;16.30;81.50
67769;DHT22;54569;52.018;5.584;2023-07-20T03:23:38;16.30;81.50
67769;DHT22;54569;52.018;5.584;2023-07-20T03:26:03;16.20;81.60
67769;DHT22;54569;52.018;5.584;2023-07-20T03:28:30;16.20;81.70
67769;DHT22;54569;52.018;5.584;2023-07-20T03:30:57;16.20;81.80
67769;DHT22;54569;52.018;5.584;2023-07-20T03:33:28;16.10;81.80
67769;DHT22;54569;52.018;5.584;2023-07-20T03:35:57;16.10;82.00
67769;DHT22;54569;52.018;5.584;2023-07-20T03:38:24;16.10;82.10
67769;DHT22;54569;52.018;5.584;2023-07-20T03:40:54;16.10;82.10
67769;DHT22;54569;52.018;5.584;2023-07-20T03:43:21;16.00;82.20
67769;DHT22;54569;52.018;5.584;2023-07-20T03:45:47;16.00;82.40
67769;DHT22;54569;52.018;5.584;2023-07-20T03:48:15;16.00;82.40
67769;DHT22;54569;52.018;5.584;2023-07-20T03:50:41;16.00;82.40
67769;DHT22;54569;52.018;5.584;2023-07-20T03:53:07;16.00;82.60
67769;DHT22;54569;52.018;5.584;2023-07-20T03:55:32;16.00;82.50
67769;DHT22;54569;52.018;5.584;2023-07-20T03:58:01;16.00;82.40
67769;DHT22;54569;52.018;5.584;2023-07-20T04:00:27;16.10;82.50
67769;DHT22;54569;52.018;5.584;2023-07-20T04:02:55;16.10;82.40
67769;DHT22;54569;52.018;5.584;2023-07-20T04:05:21;16.10;82.40
67769;DHT22;54569;52.018;5.584;2023-07-20T04:07:46;16.10;82.40
67769;DHT22;54569;52.018;5.584;2023-07-20T04:10:12;16.10;82.40
67769;DHT22;54569;52.018;5.584;2023-07-20T04:12:38;16.10;82.40
67769;DHT22;54569;52.018;5.584;2023-07-20T04:15:04;16.20;82.50
67769;DHT22;54569;52.018;5.584;2023-07-20T04:17:30;16.20;82.50
67769;DHT22;54569;52.018;5.584;2023-07-20T04:19:56;16.20;82.50
67769;DHT22;54569;52.018;5.584;2023-07-20T04:22:21;16.30;82.30
67769;DHT22;54569;52.018;5.584;2023-07-20T04:24:48;16.30;82.30
67769;DHT22;54569;52.018;5.584;2023-07-20T04:27:13;16.30;82.20
67769;DHT22;54569;52.018;5.584;2023-07-20T04:29:39;16.40;82.20
67769;DHT22;54569;52.018;5.584;2023-07-20T04:32:06;16.50;82.10
67769;DHT22;54569;52.018;5.584;2023-07-20T04:34:32;16.60;82.10
67769;DHT22;54569;52.018;5.584;2023-07-20T04:36:58;16.60;82.00
67769;DHT22;54569;52.018;5.584;2023-07-20T04:39:26;16.60;81.90
67769;DHT22;54569;52.018;5.584;2023-07-20T04:41:53;16.60;81.80
67769;DHT22;54569;52.018;5.584;2023-07-20T04:44:19;16.70;81.70
67769;DHT22;54569;52.018;5.584;2023-07-20T04:46:45;16.70;81.70
67769;DHT22;54569;52.018;5.584;2023-07-20T04:49:11;16.80;81.80
67769;DHT22;54569;52.018;5.584;2023-07-20T04:51:40;16.70;82.30
67769;DHT22;54569;52.018;5.584;2023-07-20T04:54:06;16.80;81.60
67769;DHT22;54569;52.018;5.584;2023-07-20T04:56:35;16.80;81.60
67769;DHT22;54569;52.018;5.584;2023-07-20T04:59:04;16.80;81.60
67769;DHT22;54569;52.018;5.584;2023-07-20T05:01:30;16.90;81.50
67769;DHT22;54569;52.018;5.584;2023-07-20T05:03:56;16.90;81.50
67769;DHT22;54569;52.018;5.584;2023-07-20T05:06:21;16.90;82.00
67769;DHT22;54569;52.018;5.584;2023-07-20T05:08:47;16.90;81.30
67769;DHT22;54569;52.018;5.584;2023-07-20T05:11:13;16.90;81.30
67769;DHT22;54569;52.018;5.584;2023-07-20T05:13:39;16.90;81.30
67769;DHT22;54569;52.018;5.584;2023-07-20T05:16:04;16.90;81.40
67769;DHT22;54569;52.018;5.584;2023-07-20T05:18:31;16.90;81.30
67769;DHT22;54569;52.018;5.584;2023-07-20T05:20:58;16.90;81.50
67769;DHT22;54569;52.018;5.584;2023-07-20T05:23:25;16.80;81.50
67769;DHT22;54569;52.018;5.584;2023-07-20T05:26:00;16.80;81.70
67769;DHT22;54569;52.018;5.584;2023-07-20T05:28:26;16.80;82.00
67769;DHT22;54569;52.018;5.584;2023-07-20T05:30:55;16.70;82.10
67769;DHT22;54569;52.018;5.584;2023-07-20T05:33:21;16.70;82.10
67769;DHT22;54569;52.018;5.584;2023-07-20T05:35:47;16.70;82.20
67769;DHT22;54569;52.018;5.584;2023-07-20T05:38:13;16.70;82.20
67769;DHT22;54569;52.018;5.584;2023-07-20T05:40:40;16.80;82.20
67769;DHT22;54569;52.018;5.584;2023-07-20T05:43:06;16.80;82.10
67769;DHT22;54569;52.018;5.584;2023-07-20T05:45:32;16.80;82.10
67769;DHT22;54569;52.018;5.584;2023-07-20T05:47:58;16.80;82.10
67769;DHT22;54569;52.018;5.584;2023-07-20T05:50:24;16.80;82.00
67769;DHT22;54569;52.018;5.584;2023-07-20T05:52:52;16.80;81.90
67769;DHT22;54569;52.018;5.584;2023-07-20T05:55:18;16.80;82.10
67769;DHT22;54569;52.018;5.584;2023-07-20T05:57:44;16.80;82.10
67769;DHT22;54569;52.018;5.584;2023-07-20T06:00:11;16.80;81.80
67769;DHT22;54569;52.018;5.584;2023-07-20T06:02:38;16.90;81.90
67769;DHT22;54569;52.018;5.584;2023-07-20T06:05:06;16.90;81.90
67769;DHT22;54569;52.018;5.584;2023-07-20T06:07:33;17.00;81.70
67769;DHT22;54569;52.018;5.584;2023-07-20T06:09:59;17.10;81.60
67769;DHT22;54569;52.018;5.584;2023-07-20T06:12:25;17.20;81.40
67769;DHT22;54569;52.018;5.584;2023-07-20T06:14:50;17.20;81.10
67769;DHT22;54569;52.018;5.584;2023-07-20T06:17:16;17.30;80.70
67769;DHT22;54569;52.018;5.584;2023-07-20T06:19:42;17.30;80.40
67769;DHT22;54569;52.018;5.584;2023-07-20T06:22:08;17.40;80.30
67769;DHT22;54569;52.018;5.584;2023-07-20T06:24:33;17.40;80.40
67769;DHT22;54569;52.018;5.584;2023-07-20T06:26:59;17.50;80.20
67769;DHT22;54569;52.018;5.584;2023-07-20T06:29:24;17.60;80.00
67769;DHT22;54569;52.018;5.584;2023-07-20T06:31:50;17.60;79.60
67769;DHT22;54569;52.018;5.584;2023-07-20T06:34:16;17.70;78.90
67769;DHT22;54569;52.018;5.584;2023-07-20T06:36:41;17.70;78.40
67769;DHT22;54569;52.018;5.584;2023-07-20T06:39:07;17.80;78.30
67769;DHT22;54569;52.018;5.584;2023-07-20T06:41:33;17.80;77.90
67769;DHT22;54569;52.018;5.584;2023-07-20T06:43:58;18.00;77.80
67769;DHT22;54569;52.018;5.584;2023-07-20T06:46:25;18.10;77.60
67769;DHT22;54569;52.018;5.584;2023-07-20T06:48:51;18.20;76.50
67769;DHT22;54569;52.018;5.584;2023-07-20T06:51:17;18.40;75.70
67769;DHT22;54569;52.018;5.584;2023-07-20T06:53:43;18.50;75.00
67769;DHT22;54569;52.018;5.584;2023-07-20T06:56:09;18.50;74.40
67769;DHT22;54569;52.018;5.584;2023-07-20T06:58:35;18.50;74.10
67769;DHT22;54569;52.018;5.584;2023-07-20T07:01:08;18.60;74.60
67769;DHT22;54569;52.018;5.584;2023-07-20T07:03:34;18.70;74.30
67769;DHT22;54569;52.018;5.584;2023-07-20T07:06:00;18.70;74.50
67769;DHT22;54569;52.018;5.584;2023-07-20T07:08:26;18.90;74.20
67769;DHT22;54569;52.018;5.584;2023-07-20T07:10:52;19.10;73.60
67769;DHT22;54569;52.018;5.584;2023-07-20T07:13:19;19.30;72.90
67769;DHT22;54569;52.018;5.584;2023-07-20T07:15:45;19.50;72.20
67769;DHT22;54569;52.018;5.584;2023-07-20T07:18:11;19.70;71.50
67769;DHT22;54569;52.018;5.584;2023-07-20T07:20:37;19.90;70.90
67769;DHT22;54569;52.018;5.584;2023-07-20T07:23:03;20.00;70.20
67769;DHT22;54569;52.018;5.584;2023-07-20T07:25:28;20.20;70.00
67769;DHT22;54569;52.018;5.584;2023-07-20T07:27:55;20.20;69.80
67769;DHT22;54569;52.018;5.584;2023-07-20T07:30:21;20.20;70.10
67769;DHT22;54569;52.018;5.584;2023-07-20T07:32:47;20.30;69.60
67769;DHT22;54569;52.018;5.584;2023-07-20T07:35:13;20.30;69.30
67769;DHT22;54569;52.018;5.584;2023-07-20T07:37:39;20.30;69.40
67769;DHT22;54569;52.018;5.584;2023-07-20T07:40:05;20.30;69.30
67769;DHT22;54569;52.018;5.584;2023-07-20T07:42:31;20.40;69.60
67769;DHT22;54569;52.018;5.584;2023-07-20T07:44:57;20.40;69.90
67769;DHT22;54569;52.018;5.584;2023-07-20T07:47:23;20.50;69.10
67769;DHT22;54569;52.018;5.584;2023-07-20T07:49:49;20.60;68.70
67769;DHT22;54569;52.018;5.584;2023-07-20T07:52:15;20.50;68.40
67769;DHT22;54569;52.018;5.584;2023-07-20T07:54:41;20.50;68.30
67769;DHT22;54569;52.018;5.584;2023-07-20T07:57:07;20.50;68.50
67769;DHT22;54569;52.018;5.584;2023-07-20T07:59:32;20.50;68.40
67769;DHT22;54569;52.018;5.584;2023-07-20T08:02:03;20.40;68.60
67769;DHT22;54569;52.018;5.584;2023-07-20T08:04:30;20.40;68.50
67769;DHT22;54569;52.018;5.584;2023-07-20T08:06:55;20.40;68.70
67769;DHT22;54569;52.018;5.584;2023-07-20T08:09:21;20.60;68.00
67769;DHT22;54569;52.018;5.584;2023-07-20T08:11:47;20.70;67.50
67769;DHT22;54569;52.018;5.584;2023-07-20T08:14:13;20.70;67.00
67769;DHT22;54569;52.018;5.584;2023-07-20T08:16:39;20.70;66.90
67769;DHT22;54569;52.018;5.584;2023-07-20T08:19:05;20.90;66.90
67769;DHT22;54569;52.018;5.584;2023-07-20T08:21:30;21.20;66.00
67769;DHT22;54569;52.018;5.584;2023-07-20T08:23:56;21.40;65.80
67769;DHT22;54569;52.018;5.584;2023-07-20T08:26:23;21.50;65.60
67769;DHT22;54569;52.018;5.584;2023-07-20T08:28:49;21.60;65.60
67769;DHT22;54569;52.018;5.584;2023-07-20T08:31:15;21.70;65.00
67769;DHT22;54569;52.018;5.584;2023-07-20T08:33:40;21.90;64.30
67769;DHT22;54569;52.018;5.584;2023-07-20T08:36:06;22.10;64.00
67769;DHT22;54569;52.018;5.584;2023-07-20T08:38:32;22.30;63.60
67769;DHT22;54569;52.018;5.584;2023-07-20T08:40:57;22.20;63.20
67769;DHT22;54569;52.018;5.584;2023-07-20T08:43:27;22.20;63.50
67769;DHT22;54569;52.018;5.584;2023-07-20T08:45:54;22.20;63.40
67769;DHT22;54569;52.018;5.584;2023-07-20T08:48:21;22.10;63.50
67769;DHT22;54569;52.018;5.584;2023-07-20T08:50:49;22.00;63.90
67769;DHT22;54569;52.018;5.584;2023-07-20T08:53:16;21.80;64.10
67769;DHT22;54569;52.018;5.584;2023-07-20T08:55:44;21.70;64.60
67769;DHT22;54569;52.018;5.584;2023-07-20T08:58:12;21.70;64.50
67769;DHT22;54569;52.018;5.584;2023-07-20T09:00:41;21.80;64.40
67769;DHT22;54569;52.018;5.584;2023-07-20T09:03:07;21.90;63.80
67769;DHT22;54569;52.018;5.584;2023-07-20T09:05:34;21.80;63.60
67769;DHT22;54569;52.018;5.584;2023-07-20T09:08:01;21.70;63.80
67769;DHT22;54569;52.018;5.584;2023-07-20T09:10:29;21.80;64.00
67769;DHT22;54569;52.018;5.584;2023-07-20T09:12:55;21.70;64.00
67769;DHT22;54569;52.018;5.584;2023-07-20T09:15:22;21.90;64.20
67769;DHT22;54569;52.018;5.584;2023-07-20T09:17:49;22.10;63.80
67769;DHT22;54569;52.018;5.584;2023-07-20T09:20:16;22.20;62.90
67769;DHT22;54569;52.018;5.584;2023-07-20T09:22:42;22.30;62.80
67769;DHT22;54569;52.018;5.584;2023-07-20T09:25:18;22.50;62.50
67769;DHT22;54569;52.018;5.584;2023-07-20T09:27:48;22.60;61.80
67769;DHT22;54569;52.018;5.584;2023-07-20T09:30:15;22.60;62.10
67769;DHT22;54569;52.018;5.584;2023-07-20T09:32:46;22.70;61.80
67769;DHT22;54569;52.018;5.584;2023-07-20T09:35:16;22.70;61.60
67769;DHT22;54569;52.018;5.584;2023-07-20T09:38:00;22.90;61.50
67769;DHT22;54569;52.018;5.584;2023-07-20T09:40:27;23.00;60.40
67769;DHT22;54569;52.018;5.584;2023-07-20T09:42:54;23.00;61.20
67769;DHT22;54569;52.018;5.584;2023-07-20T09:45:41;23.00;61.00
67769;DHT22;54569;52.018;5.584;2023-07-20T09:48:09;22.80;60.40
67769;DHT22;54569;52.018;5.584;2023-07-20T09:50:43;22.70;61.40
67769;DHT22;54569;52.018;5.584;2023-07-20T09:53:13;22.60;61.20
67769;DHT22;54569;52.018;5.584;2023-07-20T09:55:41;22.60;61.60
67769;DHT22;54569;52.018;5.584;2023-07-20T09:58:08;22.50;61.60
67769;DHT22;54569;52.018;5.584;2023-07-20T10:00:39;22.60;61.50
67769;DHT22;54569;52.018;5.584;2023-07-20T10:03:06;22.60;61.10
67769;DHT22;54569;52.018;5.584;2023-07-20T10:05:34;22.60;60.90
67769;DHT22;54569;52.018;5.584;2023-07-20T10:08:02;22.90;60.40
67769;DHT22;54569;52.018;5.584;2023-07-20T10:10:29;23.20;59.80
67769;DHT22;54569;52.018;5.584;2023-07-20T10:12:57;23.50;58.90
67769;DHT22;54569;52.018;5.584;2023-07-20T10:15:28;23.80;58.60
67769;DHT22;54569;52.018;5.584;2023-07-20T10:18:02;24.00;57.60
67769;DHT22;54569;52.018;5.584;2023-07-20T10:20:30;24.20;57.20
67769;DHT22;54569;52.018;5.584;2023-07-20T10:22:57;24.20;57.90
67769;DHT22;54569;52.018;5.584;2023-07-20T10:25:23;24.20;57.80
67769;DHT22;54569;52.018;5.584;2023-07-20T10:27:49;24.20;58.10
67769;DHT22;54569;52.018;5.584;2023-07-20T10:30:17;24.20;58.10
67769;DHT22;54569;52.018;5.584;2023-07-20T10:32:43;24.10;58.10
67769;DHT22;54569;52.018;5.584;2023-07-20T10:35:17;24.00;57.90
67769;DHT22;54569;52.018;5.584;2023-07-20T10:38:01;23.70;58.10
67769;DHT22;54569;52.018;5.584;2023-07-20T10:40:32;23.60;58.50
67769;DHT22;54569;52.018;5.584;2023-07-20T10:43:04;23.50;58.90
67769;DHT22;54569;52.018;5.584;2023-07-20T10:45:34;23.60;58.80
67769;DHT22;54569;52.018;5.584;2023-07-20T10:48:04;23.70;58.50
67769;DHT22;54569;52.018;5.584;2023-07-20T10:50:32;23.70;58.00
67769;DHT22;54569;52.018;5.584;2023-07-20T10:53:14;23.90;57.50
67769;DHT22;54569;52.018;5.584;2023-07-20T10:55:41;24.20;56.20
67769;DHT22;54569;52.018;5.584;2023-07-20T10:58:12;24.30;57.00
67769;DHT22;54569;52.018;5.584;2023-07-20T11:01:01;24.20;56.80
67769;DHT22;54569;52.018;5.584;2023-07-20T11:03:28;24.30;55.40
67769;DHT22;54569;52.018;5.584;2023-07-20T11:05:56;24.30;56.10
67769;DHT22;54569;52.018;5.584;2023-07-20T11:08:41;24.40;55.60
67769;DHT22;54569;52.018;5.584;2023-07-20T11:13:58;24.50;53.60
67769;DHT22;54569;52.018;5.584;2023-07-20T11:19:03;24.60;54.00
67769;DHT22;54569;52.018;5.584;2023-07-20T11:21:36;24.60;55.00
67769;DHT22;54569;52.018;5.584;2023-07-20T11:24:05;24.60;54.40
67769;DHT22;54569;52.018;5.584;2023-07-20T11:26:40;24.80;54.50
67769;DHT22;54569;52.018;5.584;2023-07-20T11:29:05;25.10;53.80
67769;DHT22;54569;52.018;5.584;2023-07-20T11:31:35;25.40;53.80
67769;DHT22;54569;52.018;5.584;2023-07-20T11:34:01;25.50;53.20
67769;DHT22;54569;52.018;5.584;2023-07-20T11:36:26;25.60;53.90
67769;DHT22;54569;52.018;5.584;2023-07-20T11:38:53;25.50;53.30
67769;DHT22;54569;52.018;5.584;2023-07-20T11:41:19;25.60;53.60
67769;DHT22;54569;52.018;5.584;2023-07-20T11:43:45;25.50;54.30
67769;DHT22;54569;52.018;5.584;2023-07-20T11:46:11;25.50;54.20
67769;DHT22;54569;52.018;5.584;2023-07-20T11:48:37;25.40;54.40
67769;DHT22;54569;52.018;5.584;2023-07-20T11:51:02;25.40;54.40
67769;DHT22;54569;52.018;5.584;2023-07-20T11:53:28;25.40;53.80
67769;DHT22;54569;52.018;5.584;2023-07-20T11:55:54;25.40;53.90
67769;DHT22;54569;52.018;5.584;2023-07-20T11:58:20;25.30;53.80
67769;DHT22;54569;52.018;5.584;2023-07-20T12:00:47;25.30;53.80
67769;DHT22;54569;52.018;5.584;2023-07-20T12:03:13;25.30;53.70
67769;DHT22;54569;52.018;5.584;2023-07-20T12:05:39;25.30;53.50
67769;DHT22;54569;52.018;5.584;2023-07-20T12:08:05;25.20;53.10
67769;DHT22;54569;52.018;5.584;2023-07-20T12:10:31;25.10;53.20
67769;DHT22;54569;52.018;5.584;2023-07-20T12:13:03;25.00;53.40
67769;DHT22;54569;52.018;5.584;2023-07-20T12:15:29;24.90;52.50
67769;DHT22;54569;52.018;5.584;2023-07-20T12:17:57;24.90;53.70
67769;DHT22;54569;52.018;5.584;2023-07-20T12:20:31;24.90;53.70
67769;DHT22;54569;52.018;5.584;2023-07-20T12:23:17;24.80;52.10
67769;DHT22;54569;52.018;5.584;2023-07-20T12:25:46;25.00;51.70
67769;DHT22;54569;52.018;5.584;2023-07-20T12:28:17;25.00;53.10
67769;DHT22;54569;52.018;5.584;2023-07-20T12:30:45;25.00;52.40
67769;DHT22;54569;52.018;5.584;2023-07-20T12:33:11;25.10;52.30
67769;DHT22;54569;52.018;5.584;2023-07-20T12:35:40;25.00;52.00
67769;DHT22;54569;52.018;5.584;2023-07-20T12:38:06;25.10;52.20
67769;DHT22;54569;52.018;5.584;2023-07-20T12:40:33;25.10;51.50
67769;DHT22;54569;52.018;5.584;2023-07-20T12:42:59;25.00;51.50
67769;DHT22;54569;52.018;5.584;2023-07-20T12:45:25;25.00;52.10
67769;DHT22;54569;52.018;5.584;2023-07-20T12:47:51;25.10;51.90
67769;DHT22;54569;52.018;5.584;2023-07-20T12:50:16;25.00;52.00
67769;DHT22;54569;52.018;5.584;2023-07-20T12:52:42;25.00;51.60
67769;DHT22;54569;52.018;5.584;2023-07-20T12:55:09;25.20;51.20
67769;DHT22;54569;52.018;5.584;2023-07-20T12:57:36;25.20;51.30
67769;DHT22;54569;52.018;5.584;2023-07-20T13:00:04;25.20;50.70
67769;DHT22;54569;52.018;5.584;2023-07-20T13:02:33;25.20;50.50
67769;DHT22;54569;52.018;5.584;2023-07-20T13:04:59;25.10;50.90
67769;DHT22;54569;52.018;5.584;2023-07-20T13:07:35;25.20;51.00
67769;DHT22;54569;52.018;5.584;2023-07-20T13:10:04;25.20;50.00
67769;DHT22;54569;52.018;5.584;2023-07-20T13:12:31;25.20;50.80
67769;DHT22;54569;52.018;5.584;2023-07-20T13:14:57;25.30;50.50
67769;DHT22;54569;52.018;5.584;2023-07-20T13:17:26;25.40;50.50
67769;DHT22;54569;52.018;5.584;2023-07-20T13:19:52;25.50;50.30
67769;DHT22;54569;52.018;5.584;2023-07-20T13:22:18;25.60;50.50
67769;DHT22;54569;52.018;5.584;2023-07-20T13:24:47;25.50;50.60
67769;DHT22;54569;52.018;5.584;2023-07-20T13:27:16;25.50;50.10
67769;DHT22;54569;52.018;5.584;2023-07-20T13:29:42;25.40;50.30
67769;DHT22;54569;52.018;5.584;2023-07-20T13:32:09;25.20;50.50
67769;DHT22;54569;52.018;5.584;2023-07-20T13:34:35;25.00;50.80
67769;DHT22;54569;52.018;5.584;2023-07-20T13:37:01;24.90;50.90
67769;DHT22;54569;52.018;5.584;2023-07-20T13:39:27;24.90;51.00
67769;DHT22;54569;52.018;5.584;2023-07-20T13:41:53;24.80;51.10
67769;DHT22;54569;52.018;5.584;2023-07-20T13:44:20;24.80;51.10
67769;DHT22;54569;52.018;5.584;2023-07-20T13:46:49;24.80;51.00
67769;DHT22;54569;52.018;5.584;2023-07-20T13:49:15;24.80;51.00
67769;DHT22;54569;52.018;5.584;2023-07-20T13:51:42;24.80;51.00
67769;DHT22;54569;52.018;5.584;2023-07-20T13:54:08;24.80;50.90
67769;DHT22;54569;52.018;5.584;2023-07-20T13:56:34;24.90;51.00
67769;DHT22;54569;52.018;5.584;2023-07-20T13:58:59;24.90;50.60
67769;DHT22;54569;52.018;5.584;2023-07-20T14:01:26;24.90;50.40
67769;DHT22;54569;52.018;5.584;2023-07-20T14:03:54;25.00;50.30
67769;DHT22;54569;52.018;5.584;2023-07-20T14:06:20;25.10;50.60
67769;DHT22;54569;52.018;5.584;2023-07-20T14:08:46;25.10;50.40
67769;DHT22;54569;52.018;5.584;2023-07-20T14:11:16;25.10;50.50
67769;DHT22;54569;52.018;5.584;2023-07-20T14:13:42;25.20;50.30
67769;DHT22;54569;52.018;5.584;2023-07-20T14:16:08;25.40;50.10
67769;DHT22;54569;52.018;5.584;2023-07-20T14:18:34;25.40;50.20
67769;DHT22;54569;52.018;5.584;2023-07-20T14:21:00;25.50;49.80
67769;DHT22;54569;52.018;5.584;2023-07-20T14:23:27;25.50;49.80
67769;DHT22;54569;52.018;5.584;2023-07-20T14:25:53;25.60;49.80
67769;DHT22;54569;52.018;5.584;2023-07-20T14:28:19;25.60;49.70
67769;DHT22;54569;52.018;5.584;2023-07-20T14:30:45;25.50;49.90
67769;DHT22;54569;52.018;5.584;2023-07-20T14:33:11;25.40;50.40
67769;DHT22;54569;52.018;5.584;2023-07-20T14:35:37;25.40;50.10
67769;DHT22;54569;52.018;5.584;2023-07-20T14:38:03;25.30;49.90
67769;DHT22;54569;52.018;5.584;2023-07-20T14:40:28;25.30;50.10
67769;DHT22;54569;52.018;5.584;2023-07-20T14:42:56;25.30;49.80
67769;DHT22;54569;52.018;5.584;2023-07-20T14:45:22;25.20;49.90
67769;DHT22;54569;52.018;5.584;2023-07-20T14:47:47;25.20;50.10
67769;DHT22;54569;52.018;5.584;2023-07-20T14:50:22;25.20;50.00
67769;DHT22;54569;52.018;5.584;2023-07-20T14:52:48;25.30;49.50
67769;DHT22;54569;52.018;5.584;2023-07-20T14:55:13;25.30;49.60
67769;DHT22;54569;52.018;5.584;2023-07-20T14:57:39;25.50;49.60
67769;DHT22;54569;52.018;5.584;2023-07-20T15:00:05;25.60;49.50
67769;DHT22;54569;52.018;5.584;2023-07-20T15:02:34;25.70;49.70
67769;DHT22;54569;52.018;5.584;2023-07-20T15:04:59;25.70;49.60
67769;DHT22;54569;52.018;5.584;2023-07-20T15:07:25;25.80;49.60
67769;DHT22;54569;52.018;5.584;2023-07-20T15:09:51;25.80;49.10
67769;DHT22;54569;52.018;5.584;2023-07-20T15:12:17;25.80;49.10
67769;DHT22;54569;52.018;5.584;2023-07-20T15:14:43;25.80;49.40
67769;DHT22;54569;52.018;5.584;2023-07-20T15:17:10;25.70;48.80
67769;DHT22;54569;52.018;5.584;2023-07-20T15:19:36;25.60;48.90
67769;DHT22;54569;52.018;5.584;2023-07-20T15:22:05;25.60;48.90
67769;DHT22;54569;52.018;5.584;2023-07-20T15:24:32;25.60;48.70
67769;DHT22;54569;52.018;5.584;2023-07-20T15:26:58;25.60;48.90
67769;DHT22;54569;52.018;5.584;2023-07-20T15:29:24;25.40;49.10
67769;DHT22;54569;52.018;5.584;2023-07-20T15:31:50;25.50;49.40
67769;DHT22;54569;52.018;5.584;2023-07-20T15:34:15;25.40;49.20
67769;DHT22;54569;52.018;5.584;2023-07-20T15:36:41;25.40;49.10
67769;DHT22;54569;52.018;5.584;2023-07-20T15:39:10;25.30;49.10